KRCV

Astronaut Kent Rominger Airport

Del Norte, Colorado, USA
METAR KRCV 210515Z AUTO 24008KT 10SM CLR 18/02 A3034 RMK AO2 LTG DSNT W T01770023
Observed Flight Rules
Aug-21 @ 05:15 UTC (9 hours ago) Visual Flight Rules
Wind Visibility Clouds
240° at 8 knots 10 miles
  • Clear skies
Temperatures Readings
Current 18°C / 64°F
Dewpoint 2°C / 36°F
Humidity 34%
Altimeter 30.34" Hg
Pressure 1027 hPa
Elevation 2424
METAR KRCV 210515Z AUTO 24008KT 10SM CLR 18/02 A3034 RMK AO2 LTG DSNT W T01770023
Observed Flight Rules
Aug-21 @ 05:15 UTC
(9 hours ago)
VFR
Wind Visibility
240° at 8 knots 10 miles
Clouds
  • Clear skies
Temperature Dewpoint
18°C / 64°F 2°C / 36°F
Humidity Altimeter Pressure
34% 30.34" Hg 1027 hPa